sensor_id;sensor_type;location;lat;lon;timestamp;temperature;humidity
42755;DHT22;28407;51.830;5.684;2023-02-27T00:01:40;3.90;65.10
42755;DHT22;28407;51.830;5.684;2023-02-27T00:03:40;3.90;65.20
42755;DHT22;28407;51.830;5.684;2023-02-27T00:05:41;3.80;65.10
42755;DHT22;28407;51.830;5.684;2023-02-27T00:07:42;3.80;65.20
42755;DHT22;28407;51.830;5.684;2023-02-27T00:09:42;3.80;65.20
42755;DHT22;28407;51.830;5.684;2023-02-27T00:11:43;3.80;65.20
42755;DHT22;28407;51.830;5.684;2023-02-27T00:13:44;3.80;65.20
42755;DHT22;28407;51.830;5.684;2023-02-27T00:15:46;3.80;65.20
42755;DHT22;28407;51.830;5.684;2023-02-27T00:17:47;3.80;65.90
42755;DHT22;28407;51.830;5.684;2023-02-27T00:19:48;3.80;65.30
42755;DHT22;28407;51.830;5.684;2023-02-27T00:21:48;3.80;65.30
42755;DHT22;28407;51.830;5.684;2023-02-27T00:23:49;3.80;65.30
42755;DHT22;28407;51.830;5.684;2023-02-27T00:25:51;3.80;65.40
42755;DHT22;28407;51.830;5.684;2023-02-27T00:27:51;3.80;65.40
42755;DHT22;28407;51.830;5.684;2023-02-27T00:29:53;3.80;65.40
42755;DHT22;28407;51.830;5.684;2023-02-27T00:31:54;3.80;65.40
42755;DHT22;28407;51.830;5.684;2023-02-27T00:33:55;3.70;65.40
42755;DHT22;28407;51.830;5.684;2023-02-27T00:35:57;3.70;65.40
42755;DHT22;28407;51.830;5.684;2023-02-27T00:37:58;3.70;65.50
42755;DHT22;28407;51.830;5.684;2023-02-27T00:40:00;3.70;65.60
42755;DHT22;28407;51.830;5.684;2023-02-27T00:42:01;3.60;65.50
42755;DHT22;28407;51.830;5.684;2023-02-27T00:44:01;3.60;65.60
42755;DHT22;28407;51.830;5.684;2023-02-27T00:46:02;3.60;65.60
42755;DHT22;28407;51.830;5.684;2023-02-27T00:48:03;3.60;65.60
42755;DHT22;28407;51.830;5.684;2023-02-27T00:50:04;3.60;65.70
42755;DHT22;28407;51.830;5.684;2023-02-27T00:52:05;3.60;65.70
42755;DHT22;28407;51.830;5.684;2023-02-27T00:54:06;3.60;65.70
42755;DHT22;28407;51.830;5.684;2023-02-27T00:56:07;3.60;65.80
42755;DHT22;28407;51.830;5.684;2023-02-27T00:58:07;3.60;65.80
42755;DHT22;28407;51.830;5.684;2023-02-27T01:00:09;3.60;65.90
42755;DHT22;28407;51.830;5.684;2023-02-27T01:02:10;3.60;65.90
42755;DHT22;28407;51.830;5.684;2023-02-27T01:04:11;3.50;65.90
42755;DHT22;28407;51.830;5.684;2023-02-27T01:06:12;3.50;65.90
42755;DHT22;28407;51.830;5.684;2023-02-27T01:08:12;3.50;65.90
42755;DHT22;28407;51.830;5.684;2023-02-27T01:10:13;3.40;65.90
42755;DHT22;28407;51.830;5.684;2023-02-27T01:12:14;3.40;66.00
42755;DHT22;28407;51.830;5.684;2023-02-27T01:14:15;3.40;66.10
42755;DHT22;28407;51.830;5.684;2023-02-27T01:16:18;3.40;66.20
42755;DHT22;28407;51.830;5.684;2023-02-27T01:18:19;3.40;66.20
42755;DHT22;28407;51.830;5.684;2023-02-27T01:20:20;3.40;66.20
42755;DHT22;28407;51.830;5.684;2023-02-27T01:22:21;3.40;66.20
42755;DHT22;28407;51.830;5.684;2023-02-27T01:24:21;3.40;66.30
42755;DHT22;28407;51.830;5.684;2023-02-27T01:26:22;3.40;66.30
42755;DHT22;28407;51.830;5.684;2023-02-27T01:28:23;3.40;66.30
42755;DHT22;28407;51.830;5.684;2023-02-27T01:30:24;3.40;66.30
42755;DHT22;28407;51.830;5.684;2023-02-27T01:32:24;3.40;66.40
42755;DHT22;28407;51.830;5.684;2023-02-27T01:34:25;3.30;66.40
42755;DHT22;28407;51.830;5.684;2023-02-27T01:36:26;3.30;66.40
42755;DHT22;28407;51.830;5.684;2023-02-27T01:38:26;3.30;66.40
42755;DHT22;28407;51.830;5.684;2023-02-27T01:40:27;3.30;66.50
42755;DHT22;28407;51.830;5.684;2023-02-27T01:42:28;3.30;66.80
42755;DHT22;28407;51.830;5.684;2023-02-27T01:44:32;3.20;66.50
42755;DHT22;28407;51.830;5.684;2023-02-27T01:46:51;3.20;66.50
42755;DHT22;28407;51.830;5.684;2023-02-27T01:48:55;3.20;66.60
42755;DHT22;28407;51.830;5.684;2023-02-27T01:53:01;3.20;66.60
42755;DHT22;28407;51.830;5.684;2023-02-27T01:55:04;3.10;66.60
42755;DHT22;28407;51.830;5.684;2023-02-27T01:57:08;3.10;66.60
42755;DHT22;28407;51.830;5.684;2023-02-27T01:59:09;3.10;66.60
42755;DHT22;28407;51.830;5.684;2023-02-27T02:01:11;3.10;66.70
42755;DHT22;28407;51.830;5.684;2023-02-27T02:03:58;3.10;66.70
42755;DHT22;28407;51.830;5.684;2023-02-27T02:05:57;3.10;66.80
42755;DHT22;28407;51.830;5.684;2023-02-27T02:07:59;3.00;66.80
42755;DHT22;28407;51.830;5.684;2023-02-27T02:10:00;3.00;66.70
42755;DHT22;28407;51.830;5.684;2023-02-27T02:12:04;3.00;66.80
42755;DHT22;28407;51.830;5.684;2023-02-27T02:14:05;3.00;66.80
42755;DHT22;28407;51.830;5.684;2023-02-27T02:16:28;2.90;66.90
42755;DHT22;28407;51.830;5.684;2023-02-27T02:23:49;2.90;66.90
42755;DHT22;28407;51.830;5.684;2023-02-27T02:26:19;2.90;67.00
42755;DHT22;28407;51.830;5.684;2023-02-27T02:42:25;2.80;67.70
42755;DHT22;28407;51.830;5.684;2023-02-27T02:44:41;2.80;67.10
42755;DHT22;28407;51.830;5.684;2023-02-27T02:51:35;2.80;67.20
42755;DHT22;28407;51.830;5.684;2023-02-27T02:53:44;2.80;67.20
42755;DHT22;28407;51.830;5.684;2023-02-27T02:55:52;2.80;67.20
42755;DHT22;28407;51.830;5.684;2023-02-27T03:00:37;2.80;67.30
42755;DHT22;28407;51.830;5.684;2023-02-27T03:03:24;2.80;67.30
42755;DHT22;28407;51.830;5.684;2023-02-27T03:05:14;2.80;67.30
42755;DHT22;28407;51.830;5.684;2023-02-27T03:09:35;2.70;67.30
42755;DHT22;28407;51.830;5.684;2023-02-27T03:11:39;2.70;67.40
42755;DHT22;28407;51.830;5.684;2023-02-27T03:13:52;2.70;67.40
42755;DHT22;28407;51.830;5.684;2023-02-27T03:18:08;2.70;67.50
42755;DHT22;28407;51.830;5.684;2023-02-27T03:20:24;2.70;67.50
42755;DHT22;28407;51.830;5.684;2023-02-27T03:22:30;2.70;67.60
42755;DHT22;28407;51.830;5.684;2023-02-27T03:24:37;2.70;67.50
42755;DHT22;28407;51.830;5.684;2023-02-27T03:26:41;2.70;67.60
42755;DHT22;28407;51.830;5.684;2023-02-27T03:29:16;2.70;67.60
42755;DHT22;28407;51.830;5.684;2023-02-27T03:31:24;2.70;67.70
42755;DHT22;28407;51.830;5.684;2023-02-27T03:33:37;2.70;67.70
42755;DHT22;28407;51.830;5.684;2023-02-27T03:35:55;2.70;67.80
42755;DHT22;28407;51.830;5.684;2023-02-27T03:40:19;2.70;67.80
42755;DHT22;28407;51.830;5.684;2023-02-27T03:42:32;2.60;67.80
42755;DHT22;28407;51.830;5.684;2023-02-27T03:47:19;2.70;67.90
42755;DHT22;28407;51.830;5.684;2023-02-27T03:49:20;2.70;67.90
42755;DHT22;28407;51.830;5.684;2023-02-27T03:51:24;2.70;67.90
42755;DHT22;28407;51.830;5.684;2023-02-27T03:53:38;2.60;67.90
42755;DHT22;28407;51.830;5.684;2023-02-27T03:55:43;2.60;68.00
42755;DHT22;28407;51.830;5.684;2023-02-27T03:57:47;2.70;68.10
42755;DHT22;28407;51.830;5.684;2023-02-27T03:59:48;2.60;68.00
42755;DHT22;28407;51.830;5.684;2023-02-27T04:01:50;2.60;68.10
42755;DHT22;28407;51.830;5.684;2023-02-27T04:04:01;2.70;68.20
42755;DHT22;28407;51.830;5.684;2023-02-27T04:06:23;2.60;68.20
42755;DHT22;28407;51.830;5.684;2023-02-27T04:08:55;2.60;68.20
42755;DHT22;28407;51.830;5.684;2023-02-27T04:17:54;2.50;68.40
42755;DHT22;28407;51.830;5.684;2023-02-27T04:20:09;2.50;68.40
42755;DHT22;28407;51.830;5.684;2023-02-27T04:22:28;2.50;68.40
42755;DHT22;28407;51.830;5.684;2023-02-27T04:26:57;2.40;68.60
42755;DHT22;28407;51.830;5.684;2023-02-27T04:29:05;2.40;68.50
42755;DHT22;28407;51.830;5.684;2023-02-27T04:31:20;2.40;68.50
42755;DHT22;28407;51.830;5.684;2023-02-27T04:35:52;2.40;68.70
42755;DHT22;28407;51.830;5.684;2023-02-27T04:37:59;2.30;68.60
42755;DHT22;28407;51.830;5.684;2023-02-27T04:40:05;2.30;68.70
42755;DHT22;28407;51.830;5.684;2023-02-27T04:42:13;2.30;68.80
42755;DHT22;28407;51.830;5.684;2023-02-27T04:44:15;2.30;68.80
42755;DHT22;28407;51.830;5.684;2023-02-27T04:46:21;2.20;69.40
42755;DHT22;28407;51.830;5.684;2023-02-27T04:48:25;2.20;68.80
42755;DHT22;28407;51.830;5.684;2023-02-27T04:50:36;2.20;68.80
42755;DHT22;28407;51.830;5.684;2023-02-27T04:52:40;2.20;68.90
42755;DHT22;28407;51.830;5.684;2023-02-27T04:54:50;2.20;68.90
42755;DHT22;28407;51.830;5.684;2023-02-27T04:56:56;2.10;68.90
42755;DHT22;28407;51.830;5.684;2023-02-27T04:59:07;2.10;68.90
42755;DHT22;28407;51.830;5.684;2023-02-27T05:01:16;2.10;68.90
42755;DHT22;28407;51.830;5.684;2023-02-27T05:03:24;2.10;68.90
42755;DHT22;28407;51.830;5.684;2023-02-27T05:05:27;2.10;68.90
42755;DHT22;28407;51.830;5.684;2023-02-27T05:07:37;2.10;68.90
42755;DHT22;28407;51.830;5.684;2023-02-27T05:12:10;2.00;68.90
42755;DHT22;28407;51.830;5.684;2023-02-27T05:16:30;2.00;69.00
42755;DHT22;28407;51.830;5.684;2023-02-27T05:18:32;2.00;69.00
42755;DHT22;28407;51.830;5.684;2023-02-27T05:25:08;1.90;69.10
42755;DHT22;28407;51.830;5.684;2023-02-27T05:27:30;1.90;69.10
42755;DHT22;28407;51.830;5.684;2023-02-27T05:34:22;1.90;69.20
42755;DHT22;28407;51.830;5.684;2023-02-27T05:36:46;1.90;69.20
42755;DHT22;28407;51.830;5.684;2023-02-27T05:38:53;1.90;69.30
42755;DHT22;28407;51.830;5.684;2023-02-27T05:41:01;1.90;69.30
42755;DHT22;28407;51.830;5.684;2023-02-27T05:43:08;1.90;69.30
42755;DHT22;28407;51.830;5.684;2023-02-27T05:45:13;1.90;69.40
42755;DHT22;28407;51.830;5.684;2023-02-27T05:47:19;1.90;69.40
42755;DHT22;28407;51.830;5.684;2023-02-27T05:49:31;1.80;69.40
42755;DHT22;28407;51.830;5.684;2023-02-27T05:51:34;1.80;69.50
42755;DHT22;28407;51.830;5.684;2023-02-27T05:53:40;1.80;69.50
42755;DHT22;28407;51.830;5.684;2023-02-27T05:55:46;1.90;69.60
42755;DHT22;28407;51.830;5.684;2023-02-27T05:57:56;1.80;69.60
42755;DHT22;28407;51.830;5.684;2023-02-27T06:02:14;1.90;69.80
42755;DHT22;28407;51.830;5.684;2023-02-27T06:04:16;1.90;69.70
42755;DHT22;28407;51.830;5.684;2023-02-27T06:06:18;1.90;69.80
42755;DHT22;28407;51.830;5.684;2023-02-27T06:08:19;1.90;69.80
42755;DHT22;28407;51.830;5.684;2023-02-27T06:10:21;1.90;69.90
42755;DHT22;28407;51.830;5.684;2023-02-27T06:12:22;1.90;69.90
42755;DHT22;28407;51.830;5.684;2023-02-27T06:14:22;1.90;70.00
42755;DHT22;28407;51.830;5.684;2023-02-27T06:16:23;1.90;70.00
42755;DHT22;28407;51.830;5.684;2023-02-27T06:18:24;1.90;70.00
42755;DHT22;28407;51.830;5.684;2023-02-27T06:20:24;1.90;70.10
42755;DHT22;28407;51.830;5.684;2023-02-27T06:22:25;1.90;70.10
42755;DHT22;28407;51.830;5.684;2023-02-27T06:24:26;1.90;70.20
42755;DHT22;28407;51.830;5.684;2023-02-27T06:26:26;1.90;70.80
42755;DHT22;28407;51.830;5.684;2023-02-27T06:28:27;1.90;70.20
42755;DHT22;28407;51.830;5.684;2023-02-27T06:30:28;1.90;70.20
42755;DHT22;28407;51.830;5.684;2023-02-27T06:32:28;1.90;70.20
42755;DHT22;28407;51.830;5.684;2023-02-27T06:34:29;1.90;70.20
42755;DHT22;28407;51.830;5.684;2023-02-27T06:36:30;1.90;70.20
42755;DHT22;28407;51.830;5.684;2023-02-27T06:38:30;2.00;70.30
42755;DHT22;28407;51.830;5.684;2023-02-27T06:40:31;2.00;70.40
42755;DHT22;28407;51.830;5.684;2023-02-27T06:42:32;2.00;70.30
42755;DHT22;28407;51.830;5.684;2023-02-27T06:44:32;2.00;70.40
42755;DHT22;28407;51.830;5.684;2023-02-27T06:46:33;1.90;70.30
42755;DHT22;28407;51.830;5.684;2023-02-27T06:48:33;1.90;70.30
42755;DHT22;28407;51.830;5.684;2023-02-27T06:50:34;1.90;70.30
42755;DHT22;28407;51.830;5.684;2023-02-27T06:52:35;1.90;70.40
42755;DHT22;28407;51.830;5.684;2023-02-27T06:54:36;1.90;70.40
42755;DHT22;28407;51.830;5.684;2023-02-27T06:56:37;1.90;70.40
42755;DHT22;28407;51.830;5.684;2023-02-27T06:58:38;1.90;70.50
42755;DHT22;28407;51.830;5.684;2023-02-27T07:00:38;1.90;70.50
42755;DHT22;28407;51.830;5.684;2023-02-27T07:02:40;2.00;70.60
42755;DHT22;28407;51.830;5.684;2023-02-27T07:04:43;2.00;70.70
42755;DHT22;28407;51.830;5.684;2023-02-27T07:06:44;2.10;70.60
42755;DHT22;28407;51.830;5.684;2023-02-27T07:08:45;2.20;70.60
42755;DHT22;28407;51.830;5.684;2023-02-27T07:10:45;2.20;70.60
42755;DHT22;28407;51.830;5.684;2023-02-27T07:12:48;2.30;70.60
42755;DHT22;28407;51.830;5.684;2023-02-27T07:14:49;2.30;70.50
42755;DHT22;28407;51.830;5.684;2023-02-27T07:16:49;2.40;70.50
42755;DHT22;28407;51.830;5.684;2023-02-27T07:18:53;2.40;70.50
42755;DHT22;28407;51.830;5.684;2023-02-27T07:20:54;2.40;70.50
42755;DHT22;28407;51.830;5.684;2023-02-27T07:22:54;2.40;70.40
42755;DHT22;28407;51.830;5.684;2023-02-27T07:24:55;2.50;70.50
42755;DHT22;28407;51.830;5.684;2023-02-27T07:26:56;2.50;70.50
42755;DHT22;28407;51.830;5.684;2023-02-27T07:28:56;2.50;70.50
42755;DHT22;28407;51.830;5.684;2023-02-27T07:30:57;2.60;70.50
42755;DHT22;28407;51.830;5.684;2023-02-27T07:32:58;2.60;70.50
42755;DHT22;28407;51.830;5.684;2023-02-27T07:34:59;2.70;70.50
42755;DHT22;28407;51.830;5.684;2023-02-27T07:36:59;2.70;70.50
42755;DHT22;28407;51.830;5.684;2023-02-27T07:39:00;2.80;70.50
42755;DHT22;28407;51.830;5.684;2023-02-27T07:41:03;2.80;70.50
42755;DHT22;28407;51.830;5.684;2023-02-27T07:43:03;2.70;70.50
42755;DHT22;28407;51.830;5.684;2023-02-27T07:45:04;2.80;70.60
42755;DHT22;28407;51.830;5.684;2023-02-27T07:47:05;2.80;70.60
42755;DHT22;28407;51.830;5.684;2023-02-27T07:49:06;2.80;70.60
42755;DHT22;28407;51.830;5.684;2023-02-27T07:51:07;2.90;70.60
42755;DHT22;28407;51.830;5.684;2023-02-27T07:53:07;2.90;70.60
42755;DHT22;28407;51.830;5.684;2023-02-27T07:55:09;2.90;70.60
42755;DHT22;28407;51.830;5.684;2023-02-27T07:57:10;3.00;70.70
42755;DHT22;28407;51.830;5.684;2023-02-27T07:59:11;3.00;71.30
42755;DHT22;28407;51.830;5.684;2023-02-27T08:01:12;3.00;70.70
42755;DHT22;28407;51.830;5.684;2023-02-27T08:03:12;3.10;70.70
42755;DHT22;28407;51.830;5.684;2023-02-27T08:05:13;3.10;70.80
42755;DHT22;28407;51.830;5.684;2023-02-27T08:07:14;3.10;70.70
42755;DHT22;28407;51.830;5.684;2023-02-27T08:09:15;3.20;70.80
42755;DHT22;28407;51.830;5.684;2023-02-27T08:11:16;3.20;70.70
42755;DHT22;28407;51.830;5.684;2023-02-27T08:13:17;3.30;70.70
42755;DHT22;28407;51.830;5.684;2023-02-27T08:15:18;3.30;70.70
42755;DHT22;28407;51.830;5.684;2023-02-27T08:17:19;3.40;70.70
42755;DHT22;28407;51.830;5.684;2023-02-27T08:19:19;3.40;70.50
42755;DHT22;28407;51.830;5.684;2023-02-27T08:21:20;3.50;70.50
42755;DHT22;28407;51.830;5.684;2023-02-27T08:23:21;3.60;70.40
42755;DHT22;28407;51.830;5.684;2023-02-27T08:25:22;3.60;70.40
42755;DHT22;28407;51.830;5.684;2023-02-27T08:27:23;3.70;70.40
42755;DHT22;28407;51.830;5.684;2023-02-27T08:29:23;3.70;70.30
42755;DHT22;28407;51.830;5.684;2023-02-27T08:31:24;3.70;70.20
42755;DHT22;28407;51.830;5.684;2023-02-27T08:33:25;3.80;70.30
42755;DHT22;28407;51.830;5.684;2023-02-27T08:35:26;3.80;70.30
42755;DHT22;28407;51.830;5.684;2023-02-27T08:37:27;3.80;70.20
42755;DHT22;28407;51.830;5.684;2023-02-27T08:39:28;3.80;70.20
42755;DHT22;28407;51.830;5.684;2023-02-27T08:41:29;3.80;70.40
42755;DHT22;28407;51.830;5.684;2023-02-27T08:43:29;3.80;70.40
42755;DHT22;28407;51.830;5.684;2023-02-27T08:45:30;3.80;70.30
42755;DHT22;28407;51.830;5.684;2023-02-27T08:47:31;3.80;70.40
42755;DHT22;28407;51.830;5.684;2023-02-27T08:49:31;3.80;70.40
42755;DHT22;28407;51.830;5.684;2023-02-27T08:51:32;3.90;70.40
42755;DHT22;28407;51.830;5.684;2023-02-27T08:53:33;3.90;70.20
42755;DHT22;28407;51.830;5.684;2023-02-27T08:55:34;3.90;70.20
42755;DHT22;28407;51.830;5.684;2023-02-27T08:57:34;4.00;70.20
42755;DHT22;28407;51.830;5.684;2023-02-27T08:59:35;4.00;70.20
42755;DHT22;28407;51.830;5.684;2023-02-27T09:01:36;4.00;70.00
42755;DHT22;28407;51.830;5.684;2023-02-27T09:03:36;3.90;70.00
42755;DHT22;28407;51.830;5.684;2023-02-27T09:05:37;3.90;70.10
42755;DHT22;28407;51.830;5.684;2023-02-27T09:07:38;3.90;70.10
42755;DHT22;28407;51.830;5.684;2023-02-27T09:09:39;3.90;70.20
42755;DHT22;28407;51.830;5.684;2023-02-27T09:11:40;3.90;70.20
42755;DHT22;28407;51.830;5.684;2023-02-27T09:13:41;3.90;70.30
42755;DHT22;28407;51.830;5.684;2023-02-27T09:15:41;3.90;70.80
42755;DHT22;28407;51.830;5.684;2023-02-27T09:17:42;3.90;70.10
42755;DHT22;28407;51.830;5.684;2023-02-27T09:19:43;4.00;70.10
42755;DHT22;28407;51.830;5.684;2023-02-27T09:21:43;4.00;70.00
42755;DHT22;28407;51.830;5.684;2023-02-27T09:23:44;4.00;69.90
42755;DHT22;28407;51.830;5.684;2023-02-27T09:25:46;4.00;70.00
42755;DHT22;28407;51.830;5.684;2023-02-27T09:27:46;4.00;69.90
42755;DHT22;28407;51.830;5.684;2023-02-27T09:29:47;4.00;69.90
42755;DHT22;28407;51.830;5.684;2023-02-27T09:31:48;4.10;69.90
42755;DHT22;28407;51.830;5.684;2023-02-27T09:33:49;4.10;69.90
42755;DHT22;28407;51.830;5.684;2023-02-27T09:35:50;4.10;69.80
42755;DHT22;28407;51.830;5.684;2023-02-27T09:37:50;4.20;69.70
42755;DHT22;28407;51.830;5.684;2023-02-27T09:39:51;4.20;69.70
42755;DHT22;28407;51.830;5.684;2023-02-27T09:44:02;4.50;70.20
42755;DHT22;28407;51.830;5.684;2023-02-27T09:46:05;4.60;69.50
42755;DHT22;28407;51.830;5.684;2023-02-27T09:52:38;4.70;68.80
42755;DHT22;28407;51.830;5.684;2023-02-27T09:54:39;4.70;68.90
42755;DHT22;28407;51.830;5.684;2023-02-27T09:56:52;4.60;68.80
42755;DHT22;28407;51.830;5.684;2023-02-27T09:59:17;4.60;68.80
42755;DHT22;28407;51.830;5.684;2023-02-27T10:01:26;4.60;68.80
42755;DHT22;28407;51.830;5.684;2023-02-27T10:06:24;4.50;68.80
42755;DHT22;28407;51.830;5.684;2023-02-27T10:08:38;4.50;68.60
42755;DHT22;28407;51.830;5.684;2023-02-27T10:10:49;4.50;68.50
42755;DHT22;28407;51.830;5.684;2023-02-27T10:15:32;4.50;68.60
42755;DHT22;28407;51.830;5.684;2023-02-27T10:17:43;4.50;68.40
42755;DHT22;28407;51.830;5.684;2023-02-27T10:19:49;4.50;68.30
42755;DHT22;28407;51.830;5.684;2023-02-27T10:21:52;4.60;68.30
42755;DHT22;28407;51.830;5.684;2023-02-27T10:24:27;4.50;68.20
42755;DHT22;28407;51.830;5.684;2023-02-27T10:26:35;4.60;68.20
42755;DHT22;28407;51.830;5.684;2023-02-27T10:28:36;4.60;68.00
42755;DHT22;28407;51.830;5.684;2023-02-27T10:30:37;4.60;67.90
42755;DHT22;28407;51.830;5.684;2023-02-27T10:32:39;4.60;67.80
42755;DHT22;28407;51.830;5.684;2023-02-27T10:34:41;4.60;67.70
42755;DHT22;28407;51.830;5.684;2023-02-27T10:36:44;4.70;67.70
42755;DHT22;28407;51.830;5.684;2023-02-27T10:38:57;4.70;67.70
42755;DHT22;28407;51.830;5.684;2023-02-27T10:41:00;4.70;67.50
42755;DHT22;28407;51.830;5.684;2023-02-27T10:43:02;4.80;67.50
42755;DHT22;28407;51.830;5.684;2023-02-27T10:45:04;4.80;67.20
42755;DHT22;28407;51.830;5.684;2023-02-27T10:47:05;4.80;67.10
42755;DHT22;28407;51.830;5.684;2023-02-27T10:49:18;4.80;67.00
42755;DHT22;28407;51.830;5.684;2023-02-27T10:51:20;4.90;67.00
42755;DHT22;28407;51.830;5.684;2023-02-27T10:53:25;4.90;66.90
42755;DHT22;28407;51.830;5.684;2023-02-27T10:55:36;4.90;66.80
42755;DHT22;28407;51.830;5.684;2023-02-27T10:57:42;5.00;66.80
42755;DHT22;28407;51.830;5.684;2023-02-27T10:59:52;5.00;66.70
42755;DHT22;28407;51.830;5.684;2023-02-27T11:01:57;5.00;66.60
42755;DHT22;28407;51.830;5.684;2023-02-27T11:03:59;5.10;66.60
42755;DHT22;28407;51.830;5.684;2023-02-27T11:06:26;5.10;66.40
42755;DHT22;28407;51.830;5.684;2023-02-27T11:08:29;5.20;66.20
42755;DHT22;28407;51.830;5.684;2023-02-27T11:10:30;5.20;66.20
42755;DHT22;28407;51.830;5.684;2023-02-27T11:12:33;5.20;66.10
42755;DHT22;28407;51.830;5.684;2023-02-27T11:14:34;5.20;66.00
42755;DHT22;28407;51.830;5.684;2023-02-27T11:16:46;5.20;65.80
42755;DHT22;28407;51.830;5.684;2023-02-27T11:18:50;5.30;65.70
42755;DHT22;28407;51.830;5.684;2023-02-27T11:20:52;5.30;65.40
42755;DHT22;28407;51.830;5.684;2023-02-27T11:23:03;5.30;65.20
42755;DHT22;28407;51.830;5.684;2023-02-27T11:25:20;5.30;65.20
42755;DHT22;28407;51.830;5.684;2023-02-27T11:29:28;5.40;65.20
42755;DHT22;28407;51.830;5.684;2023-02-27T11:31:30;5.50;64.90
42755;DHT22;28407;51.830;5.684;2023-02-27T11:33:38;5.50;64.50
42755;DHT22;28407;51.830;5.684;2023-02-27T11:35:39;5.60;64.30
42755;DHT22;28407;51.830;5.684;2023-02-27T11:37:40;5.70;64.20
42755;DHT22;28407;51.830;5.684;2023-02-27T11:39:54;5.70;64.10
42755;DHT22;28407;51.830;5.684;2023-02-27T11:42:04;5.80;63.80
42755;DHT22;28407;51.830;5.684;2023-02-27T11:44:05;5.90;63.70
42755;DHT22;28407;51.830;5.684;2023-02-27T11:46:09;5.90;63.50
42755;DHT22;28407;51.830;5.684;2023-02-27T11:48:17;6.00;63.40
42755;DHT22;28407;51.830;5.684;2023-02-27T11:50:40;6.10;63.20
42755;DHT22;28407;51.830;5.684;2023-02-27T11:55:25;6.20;62.80
42755;DHT22;28407;51.830;5.684;2023-02-27T11:57:38;6.30;62.50
42755;DHT22;28407;51.830;5.684;2023-02-27T12:01:56;6.40;62.40
42755;DHT22;28407;51.830;5.684;2023-02-27T12:04:01;6.40;62.30
42755;DHT22;28407;51.830;5.684;2023-02-27T12:06:10;6.40;62.40
42755;DHT22;28407;51.830;5.684;2023-02-27T12:08:33;6.40;62.40
42755;DHT22;28407;51.830;5.684;2023-02-27T12:10:56;6.40;62.40
42755;DHT22;28407;51.830;5.684;2023-02-27T12:13:24;6.40;62.50
42755;DHT22;28407;51.830;5.684;2023-02-27T12:17:48;6.30;62.40
42755;DHT22;28407;51.830;5.684;2023-02-27T12:20:05;6.30;62.30
42755;DHT22;28407;51.830;5.684;2023-02-27T12:24:27;6.50;62.10
42755;DHT22;28407;51.830;5.684;2023-02-27T12:26:38;6.60;61.10
42755;DHT22;28407;51.830;5.684;2023-02-27T12:34:00;6.80;60.80
42755;DHT22;28407;51.830;5.684;2023-02-27T12:36:04;7.00;60.40
42755;DHT22;28407;51.830;5.684;2023-02-27T12:38:04;7.00;60.10
42755;DHT22;28407;51.830;5.684;2023-02-27T12:40:06;7.10;60.00
42755;DHT22;28407;51.830;5.684;2023-02-27T12:49:15;7.30;58.80
42755;DHT22;28407;51.830;5.684;2023-02-27T12:54:47;7.40;59.00
42755;DHT22;28407;51.830;5.684;2023-02-27T12:56:57;7.40;58.90
42755;DHT22;28407;51.830;5.684;2023-02-27T12:59:10;7.40;58.80
42755;DHT22;28407;51.830;5.684;2023-02-27T13:01:52;7.30;59.10
42755;DHT22;28407;51.830;5.684;2023-02-27T13:04:43;7.20;59.00
42755;DHT22;28407;51.830;5.684;2023-02-27T13:06:46;7.10;58.70
42755;DHT22;28407;51.830;5.684;2023-02-27T13:11:22;7.00;59.30
42755;DHT22;28407;51.830;5.684;2023-02-27T13:13:40;7.10;59.30
42755;DHT22;28407;51.830;5.684;2023-02-27T13:15:51;7.10;59.20
42755;DHT22;28407;51.830;5.684;2023-02-27T13:22:51;7.00;59.20
42755;DHT22;28407;51.830;5.684;2023-02-27T13:24:55;7.00;59.30
42755;DHT22;28407;51.830;5.684;2023-02-27T13:27:07;7.00;59.40
42755;DHT22;28407;51.830;5.684;2023-02-27T13:29:16;7.00;59.30
42755;DHT22;28407;51.830;5.684;2023-02-27T13:34:05;7.00;59.40
42755;DHT22;28407;51.830;5.684;2023-02-27T13:36:06;7.10;59.40
42755;DHT22;28407;51.830;5.684;2023-02-27T13:40:39;7.10;59.00
42755;DHT22;28407;51.830;5.684;2023-02-27T13:44:46;7.10;58.90
42755;DHT22;28407;51.830;5.684;2023-02-27T13:46:47;7.10;59.00
42755;DHT22;28407;51.830;5.684;2023-02-27T13:48:51;7.10;58.80
42755;DHT22;28407;51.830;5.684;2023-02-27T13:50:53;7.10;58.90
42755;DHT22;28407;51.830;5.684;2023-02-27T13:52:53;7.10;59.00
42755;DHT22;28407;51.830;5.684;2023-02-27T13:54:54;7.10;59.10
42755;DHT22;28407;51.830;5.684;2023-02-27T13:57:15;7.10;59.10
42755;DHT22;28407;51.830;5.684;2023-02-27T13:59:26;7.10;59.10
42755;DHT22;28407;51.830;5.684;2023-02-27T14:01:31;7.10;59.70
42755;DHT22;28407;51.830;5.684;2023-02-27T14:03:34;7.10;59.20
42755;DHT22;28407;51.830;5.684;2023-02-27T14:05:42;7.00;59.10
42755;DHT22;28407;51.830;5.684;2023-02-27T14:07:56;7.00;59.20
42755;DHT22;28407;51.830;5.684;2023-02-27T14:10:04;7.10;59.30
42755;DHT22;28407;51.830;5.684;2023-02-27T14:12:29;7.20;59.30
42755;DHT22;28407;51.830;5.684;2023-02-27T14:14:40;7.20;59.20
42755;DHT22;28407;51.830;5.684;2023-02-27T14:21:10;7.20;58.10
42755;DHT22;28407;51.830;5.684;2023-02-27T14:25:25;7.30;58.40
42755;DHT22;28407;51.830;5.684;2023-02-27T14:29:38;7.40;58.30
42755;DHT22;28407;51.830;5.684;2023-02-27T14:31:43;7.50;58.10
42755;DHT22;28407;51.830;5.684;2023-02-27T14:33:46;7.60;58.00
42755;DHT22;28407;51.830;5.684;2023-02-27T14:35:57;7.60;58.10
42755;DHT22;28407;51.830;5.684;2023-02-27T14:38:06;7.70;58.10
42755;DHT22;28407;51.830;5.684;2023-02-27T14:40:28;7.70;58.00
42755;DHT22;28407;51.830;5.684;2023-02-27T14:44:50;7.70;57.80
42755;DHT22;28407;51.830;5.684;2023-02-27T14:46:52;7.70;57.90
42755;DHT22;28407;51.830;5.684;2023-02-27T14:48:59;7.70;57.90
42755;DHT22;28407;51.830;5.684;2023-02-27T14:51:01;7.70;58.10
42755;DHT22;28407;51.830;5.684;2023-02-27T14:53:06;7.60;58.10
42755;DHT22;28407;51.830;5.684;2023-02-27T14:55:23;7.60;58.20
42755;DHT22;28407;51.830;5.684;2023-02-27T14:57:28;7.60;58.40
42755;DHT22;28407;51.830;5.684;2023-02-27T14:59:30;7.60;58.50
42755;DHT22;28407;51.830;5.684;2023-02-27T15:01:34;7.60;58.50
42755;DHT22;28407;51.830;5.684;2023-02-27T15:03:39;7.60;58.50
42755;DHT22;28407;51.830;5.684;2023-02-27T15:05:41;7.50;58.50
42755;DHT22;28407;51.830;5.684;2023-02-27T15:07:45;7.50;58.70
42755;DHT22;28407;51.830;5.684;2023-02-27T15:09:46;7.50;58.70
42755;DHT22;28407;51.830;5.684;2023-02-27T15:11:51;7.50;58.80
42755;DHT22;28407;51.830;5.684;2023-02-27T15:14:01;7.50;58.90
42755;DHT22;28407;51.830;5.684;2023-02-27T15:16:26;7.50;58.90
42755;DHT22;28407;51.830;5.684;2023-02-27T15:18:29;7.50;58.80
42755;DHT22;28407;51.830;5.684;2023-02-27T15:20:32;7.50;58.70
42755;DHT22;28407;51.830;5.684;2023-02-27T15:22:36;7.60;58.60
42755;DHT22;28407;51.830;5.684;2023-02-27T15:24:37;7.50;58.60
42755;DHT22;28407;51.830;5.684;2023-02-27T15:26:39;7.50;58.80
42755;DHT22;28407;51.830;5.684;2023-02-27T15:28:39;7.50;58.80
42755;DHT22;28407;51.830;5.684;2023-02-27T15:30:40;7.50;58.80
42755;DHT22;28407;51.830;5.684;2023-02-27T15:32:44;7.50;58.90
42755;DHT22;28407;51.830;5.684;2023-02-27T15:34:45;7.40;58.90